createdAt,value
2023-03-28T00:00:59.178Z,94.87
2023-03-28T00:03:36.656Z,95.10
2023-03-28T00:06:13.965Z,95.51
2023-03-28T00:08:47.488Z,94.87
2023-03-28T00:11:22.969Z,95.12
2023-03-28T00:14:00.577Z,95.14
2023-03-28T00:16:37.284Z,95.56
2023-03-28T00:19:12.905Z,95.78
2023-03-28T00:21:49.701Z,95.79
2023-03-28T00:24:22.526Z,96.02
2023-03-28T00:26:55.681Z,95.65
2023-03-28T00:29:30.146Z,96.05
2023-03-28T00:32:03.148Z,96.04
2023-03-28T00:34:36.060Z,96.37
2023-03-28T00:37:17.261Z,96.23
2023-03-28T00:39:51.126Z,96.58
2023-03-28T00:42:24.931Z,96.01
2023-03-28T00:45:00.044Z,96.20
2023-03-28T00:47:42.312Z,95.81
2023-03-28T00:50:21.021Z,96.07
2023-03-28T00:53:04.334Z,96.35
2023-03-28T00:55:41.012Z,96.87
2023-03-28T00:58:19.134Z,96.34
2023-03-28T01:00:52.243Z,96.67
2023-03-28T01:03:30.491Z,96.74
2023-03-28T01:06:06.251Z,96.76
2023-03-28T01:08:48.175Z,96.48
2023-03-28T01:11:21.771Z,96.43
2023-03-28T01:13:56.389Z,96.82
2023-03-28T01:16:41.333Z,96.68
2023-03-28T01:19:26.851Z,97.17
2023-03-28T01:22:29.789Z,96.94
2023-03-28T01:25:46.654Z,97.06
2023-03-28T01:28:37.674Z,97.27
2023-03-28T01:31:43.746Z,96.73
2023-03-28T01:35:01.406Z,97.12
2023-03-28T01:37:45.883Z,96.69
2023-03-28T01:40:32.495Z,97.09
2023-03-28T01:43:20.692Z,96.76
2023-03-28T01:46:01.483Z,96.70
2023-03-28T01:48:47.975Z,97.22
2023-03-28T01:51:26.090Z,97.27
2023-03-28T01:54:16.095Z,97.42
2023-03-28T01:56:57.847Z,97.47
2023-03-28T01:59:42.636Z,97.43
2023-03-28T02:02:37.099Z,98.13
2023-03-28T02:05:35.893Z,97.97
2023-03-28T02:08:13.481Z,98.59
2023-03-28T02:10:54.192Z,98.16
2023-03-28T02:13:44.964Z,98.44
2023-03-28T02:16:42.351Z,98.41
2023-03-28T02:19:49.230Z,98.79
2023-03-28T02:22:54.904Z,99.18
2023-03-28T02:25:52.521Z,99.99
2023-03-28T02:28:44.197Z,99.60
2023-03-28T02:31:36.346Z,99.76
2023-03-28T02:34:10.808Z,99.68
2023-03-28T02:36:52.689Z,99.77
2023-03-28T02:39:46.721Z,99.76
2023-03-28T02:42:40.319Z,99.82
2023-03-28T02:45:29.838Z,100.00
2023-03-28T02:48:14.494Z,100.00
2023-03-28T02:51:01.025Z,99.71
2023-03-28T02:53:44.784Z,99.62
2023-03-28T02:56:25.492Z,100.00
2023-03-28T02:59:19.746Z,99.85
2023-03-28T03:01:53.060Z,99.80
2023-03-28T03:04:26.012Z,99.47
2023-03-28T03:07:01.287Z,99.35
2023-03-28T03:09:36.503Z,99.48
2023-03-28T03:12:10.550Z,98.74
2023-03-28T03:14:44.812Z,98.92
2023-03-28T03:17:54.082Z,98.59
2023-03-28T03:20:33.905Z,98.91
2023-03-28T03:23:08.764Z,98.85
2023-03-28T03:25:43.365Z,98.23
2023-03-28T03:28:25.562Z,98.29
2023-03-28T03:30:59.991Z,97.98
2023-03-28T03:33:59.210Z,98.06
2023-03-28T03:36:36.202Z,97.93
2023-03-28T03:39:12.684Z,97.07
2023-03-28T03:41:45.930Z,96.14
2023-03-28T03:44:19.180Z,96.58
2023-03-28T03:46:53.515Z,96.19
2023-03-28T03:49:26.466Z,94.76
2023-03-28T03:51:59.590Z,95.40
2023-03-28T03:54:33.994Z,94.07
2023-03-28T03:57:08.176Z,93.53
2023-03-28T03:59:41.351Z,93.47
2023-03-28T04:02:20.084Z,95.17
2023-03-28T04:05:07.418Z,95.88
2023-03-28T04:08:09.916Z,97.27
2023-03-28T04:10:47.394Z,97.92
2023-03-28T04:13:20.634Z,98.00
2023-03-28T04:15:59.478Z,97.93
2023-03-28T04:18:50.902Z,97.38
2023-03-28T04:21:29.725Z,97.39
2023-03-28T04:24:02.939Z,97.42
2023-03-28T04:26:50.136Z,97.55
2023-03-28T04:29:30.801Z,97.39
2023-03-28T04:32:35.952Z,96.85
2023-03-28T04:35:16.467Z,97.12
2023-03-28T04:37:51.412Z,97.75
2023-03-28T04:40:28.192Z,97.70
2023-03-28T04:43:21.620Z,98.16
2023-03-28T04:45:59.219Z,98.46
2023-03-28T04:48:32.314Z,98.84
2023-03-28T04:51:07.762Z,98.66
2023-03-28T04:53:44.857Z,98.58
2023-03-28T04:56:36.539Z,98.62
2023-03-28T04:59:09.768Z,98.50
2023-03-28T05:01:49.699Z,99.12
2023-03-28T05:04:38.828Z,99.41
2023-03-28T05:07:14.847Z,98.88
2023-03-28T05:09:48.166Z,98.87
2023-03-28T05:12:21.312Z,98.81
2023-03-28T05:15:09.839Z,98.86
2023-03-28T05:17:54.151Z,99.09
2023-03-28T05:20:37.397Z,98.41
2023-03-28T05:23:12.389Z,98.68
2023-03-28T05:25:52.042Z,98.71
2023-03-28T05:28:25.405Z,98.84
2023-03-28T05:30:59.089Z,98.54
2023-03-28T05:33:33.554Z,98.46
2023-03-28T05:36:06.965Z,98.69
2023-03-28T05:38:41.368Z,98.16
2023-03-28T05:41:21.477Z,98.05
2023-03-28T05:43:54.495Z,97.46
2023-03-28T05:46:44.921Z,97.28
2023-03-28T05:49:17.951Z,97.82
2023-03-28T05:51:52.069Z,97.85
2023-03-28T05:54:26.468Z,98.15
2023-03-28T05:56:59.955Z,97.79
2023-03-28T05:59:33.282Z,98.10
2023-03-28T06:02:06.395Z,97.74
2023-03-28T06:04:39.315Z,98.21
2023-03-28T06:07:21.172Z,97.74
2023-03-28T06:10:01.739Z,98.01
2023-03-28T06:12:36.837Z,97.87
2023-03-28T06:15:10.601Z,97.35
2023-03-28T06:17:48.287Z,97.61
2023-03-28T06:20:21.720Z,96.66
2023-03-28T06:22:59.610Z,96.69
2023-03-28T06:25:34.335Z,96.44
2023-03-28T06:28:08.160Z,96.36
2023-03-28T06:30:57.273Z,95.93
2023-03-28T06:33:30.236Z,95.54
2023-03-28T06:36:03.671Z,95.31
2023-03-28T06:38:40.106Z,94.58
2023-03-28T06:41:15.611Z,94.07
2023-03-28T06:43:48.562Z,94.21
2023-03-28T06:46:40.413Z,93.53
2023-03-28T06:49:13.396Z,93.14
2023-03-28T06:52:05.072Z,92.56
2023-03-28T06:54:39.487Z,92.17
2023-03-28T06:57:13.728Z,92.08
2023-03-28T06:59:48.102Z,91.54
2023-03-28T07:02:27.108Z,91.17
2023-03-28T07:05:03.843Z,90.62
2023-03-28T07:07:37.361Z,89.97
2023-03-28T07:10:10.940Z,90.01
2023-03-28T07:12:45.996Z,89.51
2023-03-28T07:15:19.718Z,88.75
2023-03-28T07:17:53.380Z,88.38
2023-03-28T07:20:27.216Z,88.02
2023-03-28T07:23:01.376Z,87.16
2023-03-28T07:25:36.029Z,87.43
2023-03-28T07:28:10.706Z,86.54
2023-03-28T07:30:43.525Z,86.28
2023-03-28T07:33:20.008Z,86.47
2023-03-28T07:35:57.158Z,85.91
2023-03-28T07:38:30.801Z,85.44
2023-03-28T07:41:05.484Z,84.93
2023-03-28T07:43:40.496Z,84.67
2023-03-28T07:46:16.287Z,84.46
2023-03-28T07:48:49.896Z,84.18
2023-03-28T07:51:23.406Z,83.29
2023-03-28T07:53:57.025Z,81.91
2023-03-28T07:56:31.193Z,80.79
2023-03-28T07:59:24.752Z,80.71
2023-03-28T08:01:59.430Z,79.84
2023-03-28T08:04:32.780Z,79.30
2023-03-28T08:07:12.808Z,79.61
2023-03-28T08:09:51.049Z,79.56
2023-03-28T08:12:29.722Z,79.03
2023-03-28T08:15:08.111Z,77.56
2023-03-28T08:17:41.329Z,77.50
2023-03-28T08:20:14.857Z,76.74
2023-03-28T08:23:14.684Z,75.44
2023-03-28T08:26:08.187Z,74.04
2023-03-28T08:28:43.953Z,72.54
2023-03-28T08:31:18.474Z,73.08
2023-03-28T08:33:57.985Z,72.01
2023-03-28T08:36:37.076Z,70.45
2023-03-28T08:39:10.894Z,69.61
2023-03-28T08:42:13.019Z,69.85
2023-03-28T08:44:57.088Z,68.90
2023-03-28T08:47:34.532Z,67.85
2023-03-28T08:50:14.648Z,67.60
2023-03-28T08:52:48.301Z,65.66
2023-03-28T08:55:32.253Z,64.22
2023-03-28T08:58:07.051Z,64.99
2023-03-28T09:00:40.342Z,64.14
2023-03-28T09:03:17.163Z,63.69
2023-03-28T09:05:54.775Z,65.22
2023-03-28T09:08:53.630Z,64.26
2023-03-28T09:11:38.750Z,62.35
2023-03-28T09:14:24.888Z,61.73
2023-03-28T09:17:07.189Z,62.74
2023-03-28T09:20:11.410Z,59.46
2023-03-28T09:23:19.545Z,60.36
2023-03-28T09:26:17.126Z,58.66
2023-03-28T09:28:58.211Z,58.18
2023-03-28T09:31:34.499Z,55.85
2023-03-28T09:34:09.411Z,55.99
2023-03-28T09:36:55.562Z,55.61
2023-03-28T09:39:36.921Z,56.56
2023-03-28T09:42:16.961Z,57.11
2023-03-28T09:45:01.212Z,56.82
2023-03-28T09:48:03.688Z,57.11
2023-03-28T09:50:41.712Z,58.34
2023-03-28T09:53:22.977Z,59.45
2023-03-28T09:56:04.525Z,59.05
2023-03-28T09:58:52.896Z,57.29
2023-03-28T10:01:41.941Z,54.97
2023-03-28T10:04:36.406Z,55.35
2023-03-28T10:07:34.479Z,53.91
2023-03-28T10:10:23.564Z,51.69
2023-03-28T10:13:04.736Z,52.32
2023-03-28T10:15:45.894Z,53.04
2023-03-28T10:18:51.130Z,52.02
2023-03-28T10:21:37.490Z,54.33
2023-03-28T10:24:23.423Z,51.03
2023-03-28T10:27:09.162Z,52.12
2023-03-28T10:29:42.327Z,50.61
2023-03-28T10:32:24.454Z,51.48
2023-03-28T10:35:31.178Z,50.64
2023-03-28T10:38:21.762Z,50.90
2023-03-28T10:41:20.529Z,50.27
2023-03-28T10:44:20.662Z,51.17
2023-03-28T10:47:04.495Z,52.26
2023-03-28T10:49:48.642Z,49.85
2023-03-28T10:52:31.168Z,50.50
2023-03-28T10:55:15.730Z,49.14
2023-03-28T10:58:17.306Z,49.39
2023-03-28T11:01:05.975Z,48.86
2023-03-28T11:04:08.444Z,47.37
2023-03-28T11:06:48.104Z,48.71
2023-03-28T11:09:32.530Z,48.71
2023-03-28T11:12:51.249Z,48.86
2023-03-28T11:15:35.052Z,47.51
2023-03-28T11:18:33.170Z,48.70
2023-03-28T11:21:21.004Z,48.17
2023-03-28T11:24:06.010Z,47.24
2023-03-28T11:27:08.559Z,46.41
2023-03-28T11:30:02.332Z,47.63
2023-03-28T11:32:50.217Z,49.06
2023-03-28T11:35:31.635Z,48.74
2023-03-28T11:38:12.666Z,48.76
2023-03-28T11:40:53.778Z,46.54
2023-03-28T11:43:42.684Z,46.03
2023-03-28T11:46:21.721Z,47.69
2023-03-28T11:49:01.013Z,45.45
2023-03-28T11:51:43.225Z,48.16
2023-03-28T11:54:20.285Z,47.01
2023-03-28T11:56:57.859Z,45.64
2023-03-28T11:59:46.818Z,44.66
2023-03-28T12:02:36.402Z,45.33
2023-03-28T12:05:20.943Z,46.66
2023-03-28T12:08:04.280Z,46.05
2023-03-28T12:10:38.367Z,46.93
2023-03-28T12:13:25.574Z,47.62
2023-03-28T12:16:10.105Z,46.84
2023-03-28T12:18:47.224Z,47.42
2023-03-28T12:21:41.596Z,48.02
2023-03-28T12:24:26.137Z,45.98
2023-03-28T12:27:15.987Z,46.22
2023-03-28T12:29:54.286Z,48.43
2023-03-28T12:32:38.323Z,47.69
2023-03-28T12:35:19.714Z,47.42
2023-03-28T12:38:12.857Z,47.05
2023-03-28T12:40:55.915Z,45.58
2023-03-28T12:43:42.683Z,45.47
2023-03-28T12:46:21.568Z,46.00
2023-03-28T12:48:59.125Z,43.71
2023-03-28T12:51:36.542Z,44.35
2023-03-28T12:54:24.874Z,46.09
2023-03-28T12:57:23.719Z,45.07
2023-03-28T13:00:23.400Z,45.35
2023-03-28T13:03:28.468Z,45.06
2023-03-28T13:06:10.471Z,45.38
2023-03-28T13:08:58.766Z,44.17
2023-03-28T13:11:40.135Z,45.40
2023-03-28T13:14:33.384Z,45.34
2023-03-28T13:17:21.734Z,44.94
2023-03-28T13:19:56.955Z,45.54
2023-03-28T13:22:33.273Z,44.98
2023-03-28T13:25:25.949Z,44.47
2023-03-28T13:28:01.748Z,43.10
2023-03-28T13:30:36.141Z,44.95
2023-03-28T13:33:26.883Z,44.09
2023-03-28T13:36:25.202Z,44.94
2023-03-28T13:39:10.402Z,45.90
2023-03-28T13:41:59.741Z,47.28
2023-03-28T13:44:40.158Z,43.76
2023-03-28T13:47:24.073Z,44.72
2023-03-28T13:50:02.641Z,44.93
2023-03-28T13:52:35.798Z,46.57
2023-03-28T13:55:20.716Z,45.14
2023-03-28T13:57:54.436Z,46.68
2023-03-28T14:00:28.889Z,46.09
2023-03-28T14:03:05.887Z,47.31
2023-03-28T14:05:44.580Z,47.24
2023-03-28T14:08:23.895Z,45.70
2023-03-28T14:10:57.168Z,46.79
2023-03-28T14:13:31.381Z,47.58
2023-03-28T14:16:07.515Z,45.95
2023-03-28T14:18:45.180Z,46.01
2023-03-28T14:21:18.744Z,47.17
2023-03-28T14:23:58.671Z,46.20
2023-03-28T14:26:35.277Z,46.66
2023-03-28T14:29:11.947Z,46.77
2023-03-28T14:31:47.169Z,45.89
2023-03-28T14:34:25.888Z,47.05
2023-03-28T14:37:01.698Z,47.38
2023-03-28T14:39:37.233Z,48.29
2023-03-28T14:42:16.135Z,47.39
2023-03-28T14:44:53.640Z,47.75
2023-03-28T14:47:30.852Z,47.59
2023-03-28T14:50:07.188Z,47.24
2023-03-28T14:52:41.288Z,48.38
2023-03-28T14:55:18.767Z,47.54
2023-03-28T14:57:53.413Z,46.58
2023-03-28T15:00:34.206Z,47.44
2023-03-28T15:03:12.036Z,46.64
2023-03-28T15:05:48.737Z,47.45
2023-03-28T15:08:28.322Z,48.00
2023-03-28T15:11:06.531Z,48.12
2023-03-28T15:13:41.645Z,47.08
2023-03-28T15:16:20.711Z,48.46
2023-03-28T15:18:58.459Z,48.42
2023-03-28T15:21:34.702Z,47.97
2023-03-28T15:24:12.695Z,49.05
2023-03-28T15:26:50.598Z,47.65
2023-03-28T15:29:25.403Z,47.18
2023-03-28T15:32:06.821Z,48.65
2023-03-28T15:34:48.303Z,46.08
2023-03-28T15:37:27.169Z,47.72
2023-03-28T15:40:22.829Z,47.40
2023-03-28T15:42:57.583Z,46.92
2023-03-28T15:45:41.217Z,46.60
2023-03-28T15:48:18.314Z,47.95
2023-03-28T15:50:54.320Z,47.18
2023-03-28T15:53:30.516Z,47.47
2023-03-28T15:56:09.825Z,47.03
2023-03-28T15:58:44.990Z,47.96
2023-03-28T16:01:21.496Z,47.85
2023-03-28T16:04:16.319Z,48.28
2023-03-28T16:06:50.160Z,48.51
2023-03-28T16:09:26.611Z,47.51
2023-03-28T16:12:01.426Z,47.19
2023-03-28T16:14:51.428Z,46.53
2023-03-28T16:17:34.818Z,47.07
2023-03-28T16:20:27.424Z,47.47
2023-03-28T16:23:03.450Z,47.46
2023-03-28T16:25:38.065Z,48.63
2023-03-28T16:28:17.703Z,48.67
2023-03-28T16:30:50.975Z,48.29
2023-03-28T16:33:24.673Z,48.14
2023-03-28T16:36:00.943Z,49.89
2023-03-28T16:38:34.081Z,48.49
2023-03-28T16:41:08.657Z,48.30
2023-03-28T16:43:41.797Z,49.58
2023-03-28T16:46:15.163Z,49.59
2023-03-28T16:48:48.265Z,49.34
2023-03-28T16:51:21.212Z,50.04
2023-03-28T16:53:54.443Z,50.07
2023-03-28T16:56:30.249Z,50.97
2023-03-28T16:59:04.079Z,51.62
2023-03-28T17:01:37.557Z,51.15
2023-03-28T17:04:10.848Z,50.85
2023-03-28T17:06:43.768Z,50.52
2023-03-28T17:09:16.697Z,50.78
2023-03-28T17:11:51.493Z,49.89
2023-03-28T17:14:24.503Z,50.50
2023-03-28T17:16:57.537Z,51.13
2023-03-28T17:19:30.587Z,51.23
2023-03-28T17:22:03.824Z,51.04
2023-03-28T17:24:36.798Z,51.83
2023-03-28T17:27:11.096Z,52.11
2023-03-28T17:29:43.874Z,52.18
2023-03-28T17:32:17.111Z,52.68
2023-03-28T17:34:50.169Z,52.48
2023-03-28T17:37:24.614Z,52.98
2023-03-28T17:39:57.570Z,53.51
2023-03-28T17:42:31.824Z,54.05
2023-03-28T17:45:06.801Z,53.68
2023-03-28T17:47:39.852Z,53.36
2023-03-28T17:50:13.288Z,54.58
2023-03-28T17:52:46.089Z,54.75
2023-03-28T17:55:19.257Z,56.23
2023-03-28T17:57:53.474Z,58.40
2023-03-28T18:00:27.231Z,59.83
2023-03-28T18:03:01.067Z,60.42
2023-03-28T18:06:00.149Z,60.46
2023-03-28T18:08:34.870Z,61.54
2023-03-28T18:11:10.282Z,61.92
2023-03-28T18:13:45.589Z,61.05
2023-03-28T18:16:19.059Z,61.57
2023-03-28T18:18:54.166Z,61.58
2023-03-28T18:21:27.734Z,66.28
2023-03-28T18:24:00.635Z,64.98
2023-03-28T18:26:33.684Z,65.26
2023-03-28T18:29:08.041Z,64.29
2023-03-28T18:31:42.278Z,66.24
2023-03-28T18:34:15.352Z,68.57
2023-03-28T18:36:48.267Z,70.13
2023-03-28T18:39:23.151Z,70.12
2023-03-28T18:41:56.144Z,71.15
2023-03-28T18:44:30.386Z,73.39
2023-03-28T18:47:03.892Z,72.71
2023-03-28T18:49:36.955Z,72.39
2023-03-28T18:52:10.655Z,72.18
2023-03-28T18:54:45.991Z,71.84
2023-03-28T18:57:19.179Z,71.95
2023-03-28T18:59:54.020Z,72.25
2023-03-28T19:02:28.772Z,72.45
2023-03-28T19:05:01.776Z,73.27
2023-03-28T19:07:34.738Z,74.16
2023-03-28T19:10:09.440Z,74.75
2023-03-28T19:12:42.855Z,74.81
2023-03-28T19:15:17.469Z,75.37
2023-03-28T19:17:51.136Z,76.51
2023-03-28T19:20:24.268Z,76.99
2023-03-28T19:22:58.636Z,77.65
2023-03-28T19:25:31.922Z,78.04
2023-03-28T19:28:05.331Z,78.07
2023-03-28T19:30:40.785Z,76.37
2023-03-28T19:33:14.149Z,75.28
2023-03-28T19:35:47.202Z,75.13
2023-03-28T19:38:21.058Z,76.19
2023-03-28T19:40:58.285Z,77.49
2023-03-28T19:43:32.049Z,77.24
2023-03-28T19:46:09.068Z,77.71
2023-03-28T19:48:42.119Z,78.27
2023-03-28T19:51:16.012Z,78.57
2023-03-28T19:53:49.207Z,79.57
2023-03-28T19:56:23.533Z,79.41
2023-03-28T19:58:56.557Z,80.07
2023-03-28T20:01:31.359Z,79.80
2023-03-28T20:04:04.518Z,80.26
2023-03-28T20:06:37.819Z,80.71
2023-03-28T20:09:10.631Z,80.02
2023-03-28T20:11:43.622Z,78.42
2023-03-28T20:14:20.039Z,78.55
2023-03-28T20:16:54.711Z,76.69
2023-03-28T20:19:32.305Z,77.96
2023-03-28T20:22:06.617Z,77.54
2023-03-28T20:24:39.607Z,75.70
2023-03-28T20:27:12.953Z,75.95
2023-03-28T20:29:46.915Z,75.90
2023-03-28T20:32:21.245Z,75.20
2023-03-28T20:34:54.343Z,74.03
2023-03-28T20:37:27.334Z,74.20
2023-03-28T20:40:05.338Z,74.54
2023-03-28T20:42:39.552Z,75.28
2023-03-28T20:45:22.399Z,76.02
2023-03-28T20:47:59.058Z,76.80
2023-03-28T20:50:34.248Z,76.00
2023-03-28T20:53:08.068Z,76.29
2023-03-28T20:55:41.305Z,75.29
2023-03-28T20:58:14.164Z,75.32
2023-03-28T21:00:47.481Z,75.69
2023-03-28T21:03:22.130Z,76.29
2023-03-28T21:05:55.266Z,75.79
2023-03-28T21:08:28.096Z,75.46
2023-03-28T21:11:01.588Z,75.30
2023-03-28T21:13:34.648Z,75.82
2023-03-28T21:16:09.051Z,76.61
2023-03-28T21:18:43.992Z,76.32
2023-03-28T21:21:19.514Z,78.67
2023-03-28T21:23:53.248Z,79.48
2023-03-28T21:26:27.283Z,80.42
2023-03-28T21:29:00.419Z,80.38
2023-03-28T21:31:33.371Z,78.71
2023-03-28T21:34:07.883Z,76.91
2023-03-28T21:36:41.104Z,74.70
2023-03-28T21:39:14.114Z,73.22
2023-03-28T21:41:46.925Z,73.98
2023-03-28T21:44:19.960Z,75.97
2023-03-28T21:46:53.010Z,75.91
2023-03-28T21:49:27.933Z,74.75
2023-03-28T21:52:01.048Z,74.35
2023-03-28T21:54:34.301Z,71.93
2023-03-28T21:57:07.180Z,71.97
2023-03-28T21:59:41.486Z,71.83
2023-03-28T22:02:14.679Z,72.20
2023-03-28T22:04:48.984Z,73.37
2023-03-28T22:07:22.050Z,73.93
2023-03-28T22:09:54.939Z,73.05
2023-03-28T22:12:27.994Z,71.91
2023-03-28T22:15:00.922Z,72.88
2023-03-28T22:17:36.680Z,74.47
2023-03-28T22:20:12.895Z,75.41
2023-03-28T22:22:48.580Z,75.48
2023-03-28T22:25:22.836Z,74.42
2023-03-28T22:27:55.768Z,74.77
2023-03-28T22:30:28.823Z,74.76
2023-03-28T22:33:02.541Z,74.32
2023-03-28T22:35:37.501Z,74.60
2023-03-28T22:38:10.560Z,75.12
2023-03-28T22:40:43.444Z,74.67
2023-03-28T22:43:17.188Z,72.90
2023-03-28T22:45:50.316Z,71.20
2023-03-28T22:48:23.162Z,71.81
2023-03-28T22:51:00.685Z,70.70
2023-03-28T22:53:36.022Z,73.25
2023-03-28T22:56:09.614Z,70.32
2023-03-28T22:58:42.654Z,70.97
2023-03-28T23:01:15.511Z,71.33
2023-03-28T23:03:48.425Z,71.69
2023-03-28T23:06:23.452Z,72.64
2023-03-28T23:08:56.499Z,71.36
2023-03-28T23:11:29.635Z,71.96
2023-03-28T23:14:03.467Z,73.62
2023-03-28T23:16:38.402Z,75.35
2023-03-28T23:19:11.385Z,75.88
2023-03-28T23:21:45.782Z,75.13
2023-03-28T23:24:19.291Z,74.48
2023-03-28T23:26:52.273Z,73.57
2023-03-28T23:29:25.389Z,74.34
2023-03-28T23:31:58.465Z,73.46
2023-03-28T23:34:33.456Z,73.69
2023-03-28T23:37:07.940Z,76.17
2023-03-28T23:39:40.898Z,76.32
2023-03-28T23:42:13.785Z,78.50
2023-03-28T23:44:47.028Z,78.97
2023-03-28T23:47:21.037Z,81.83
2023-03-28T23:49:54.364Z,81.12
2023-03-28T23:52:28.546Z,79.51
2023-03-28T23:55:01.696Z,79.61
2023-03-28T23:57:34.638Z,79.36
